Dodge, ND (58625)

1:01 PM MST on February 28, 2015 (GMT -0700)
KNDKILLD5 | Change Station
CLOSE
Current Station
Personal Weather Station
Location: Killdeer, ND
Elevation: 2200 ft
Nearby Weather Stations

Elev 2200 ft 47.35 °N, 102.70 °W | Updated 3 minutes ago

Overcast
Overcast
15.7 °F
Feels Like 16 °F
N
2.0
Wind Variable Wind from NW

Today
High -- | Low -- °F
--% Chance of Precip.
Yesterday
High -- | Low -- °F
Precip. -- in
6:31 AM 5:32 PM
Waxing Gibbous, 79% visible
Pressure 30.15 in
Visibility 10.0 miles
Clouds Mostly Cloudy 2100 ft
Overcast 2800 ft
Windchill 16 °F
Dew Point 7 °F
Humidity 67%
Rainfall 0.00 in
Snow Depth Not available.
UV 1 out of 12
Pollen .10 out of 12
Air Quality Not available.
Flu Activity Not available.
METAR KHZE 281955Z AUTO 30013G20KT 10SM BKN021 OVC028 M09/M17 A3015 RMK AO2

More Conditions Fewer Conditions

Pressure 30.15 in
Visibility 10.0 miles
Clouds Mostly Cloudy 2100 ft
Overcast 2800 ft
Windchill 16 °F
Dew Point 7 °F
Humidity 67%
Rainfall 0.00 in
Snow Depth Not available.
UV 1 out of 12
Pollen .10 out of 12
Air Quality Not available.
Flu Activity Not available.
METAR KHZE 281955Z AUTO 30013G20KT 10SM BKN021 OVC028 M09/M17 A3015 RMK AO2

More Conditions Fewer Conditions

10-Day Weather Forecast

Almanac

Astronomy

Feb. 28, 2015 Rise Set
Actual Time
Civil Twilight
Nautical Twilight
Astronomical Twilight
Moon
Length of Visible Light
Length of Day
Tomorrow will be .
, % of the Moon is Illuminated

Today's Extremes

State Highs State Lows

Community

WunderPhotos

Upload Photos

1,801,125 photos uploaded!

WunderBlogs® & News

Nearby

Air Quality

  Air Quality AQ Index Pollutant
Not available.

Snow Depth

Station Depth Elevation

Earthquake Activity

City Distance Mag. Time & Date
Minimum magnitude displayed is 2.5.

Coastal Water Temperatures

Place Temperature

Nearby Weather Stations